createdAt,value
2022-08-27T00:01:22.147Z,24.32
2022-08-27T00:03:56.004Z,24.38
2022-08-27T00:06:25.632Z,24.23
2022-08-27T00:08:55.273Z,24.16
2022-08-27T00:11:25.484Z,24.32
2022-08-27T00:13:56.602Z,24.23
2022-08-27T00:16:26.130Z,24.19
2022-08-27T00:19:00.026Z,24.22
2022-08-27T00:21:29.517Z,24.26
2022-08-27T00:23:58.952Z,24.12
2022-08-27T00:26:28.445Z,24.06
2022-08-27T00:28:57.890Z,24.21
2022-08-27T00:31:27.842Z,24.30
2022-08-27T00:34:00.585Z,24.27
2022-08-27T00:36:30.203Z,24.27
2022-08-27T00:38:59.773Z,24.17
2022-08-27T00:41:29.221Z,24.12
2022-08-27T00:44:00.129Z,24.01
2022-08-27T00:46:30.679Z,23.92
2022-08-27T00:49:05.605Z,24.08
2022-08-27T00:51:35.152Z,23.85
2022-08-27T00:54:04.703Z,24.10
2022-08-27T00:56:36.296Z,24.16
2022-08-27T00:59:06.311Z,23.99
2022-08-27T01:01:56.531Z,23.99
2022-08-27T01:04:28.600Z,23.97
2022-08-27T01:06:58.120Z,23.99
2022-08-27T01:09:27.556Z,24.15
2022-08-27T01:11:57.014Z,24.13
2022-08-27T01:14:27.045Z,23.92
2022-08-27T01:16:58.497Z,23.93
2022-08-27T01:19:32.244Z,24.02
2022-08-27T01:22:05.028Z,23.86
2022-08-27T01:24:38.424Z,24.08
2022-08-27T01:27:13.807Z,24.06
2022-08-27T01:29:43.514Z,23.91
2022-08-27T01:32:16.193Z,23.86
2022-08-27T01:34:46.023Z,23.72
2022-08-27T01:37:15.654Z,23.82
2022-08-27T01:39:47.828Z,23.64
2022-08-27T01:42:19.379Z,23.68
2022-08-27T01:44:50.901Z,23.71
2022-08-27T01:47:21.056Z,23.91
2022-08-27T01:49:50.557Z,23.82
2022-08-27T01:52:22.363Z,23.76
2022-08-27T01:54:54.448Z,23.76
2022-08-27T01:57:26.057Z,23.68
2022-08-27T01:59:56.993Z,23.57
2022-08-27T02:02:26.771Z,23.58
2022-08-27T02:04:56.304Z,23.64
2022-08-27T02:07:25.826Z,23.61
2022-08-27T02:09:57.865Z,23.50
2022-08-27T02:12:27.331Z,23.41
2022-08-27T02:14:56.764Z,23.16
2022-08-27T02:17:26.222Z,23.05
2022-08-27T02:19:56.788Z,23.07
2022-08-27T02:22:26.878Z,23.08
2022-08-27T02:24:58.911Z,23.13
2022-08-27T02:27:28.371Z,23.22
2022-08-27T02:29:58.112Z,23.17
2022-08-27T02:32:31.837Z,23.14
2022-08-27T02:35:01.801Z,23.27
2022-08-27T02:37:31.359Z,23.17
2022-08-27T02:40:04.091Z,23.36
2022-08-27T02:42:33.562Z,23.31
2022-08-27T02:45:03.036Z,23.32
2022-08-27T02:47:32.492Z,23.38
2022-08-27T02:50:02.061Z,23.44
2022-08-27T02:52:32.242Z,23.51
2022-08-27T02:55:04.272Z,23.43
2022-08-27T02:57:36.601Z,23.28
2022-08-27T03:00:07.597Z,23.46
2022-08-27T03:02:37.273Z,23.47
2022-08-27T03:05:08.092Z,23.41
2022-08-27T03:07:37.573Z,23.57
2022-08-27T03:10:10.065Z,23.55
2022-08-27T03:12:39.557Z,23.63
2022-08-27T03:15:10.568Z,23.48
2022-08-27T03:17:52.565Z,23.53
2022-08-27T03:20:22.815Z,23.62
2022-08-27T03:22:53.082Z,23.62
2022-08-27T03:25:25.295Z,23.56
2022-08-27T03:27:54.997Z,23.56
2022-08-27T03:30:25.333Z,23.53
2022-08-27T03:32:54.961Z,23.48
2022-08-27T03:35:24.848Z,23.43
2022-08-27T03:37:54.387Z,23.55
2022-08-27T03:40:26.451Z,23.51
2022-08-27T03:42:55.936Z,23.24
2022-08-27T03:45:27.261Z,23.37
2022-08-27T03:47:56.859Z,23.55
2022-08-27T03:50:26.308Z,23.47
2022-08-27T03:52:56.027Z,23.39
2022-08-27T03:55:28.153Z,23.29
2022-08-27T03:57:57.869Z,23.20
2022-08-27T04:00:27.381Z,23.03
2022-08-27T04:02:57.515Z,23.17
2022-08-27T04:05:27.029Z,23.28
2022-08-27T04:07:56.508Z,23.28
2022-08-27T04:10:32.800Z,23.24
2022-08-27T04:13:04.336Z,23.18
2022-08-27T04:15:33.778Z,23.12
2022-08-27T04:18:03.470Z,23.13
2022-08-27T04:20:35.375Z,23.21
2022-08-27T04:23:05.364Z,23.02
2022-08-27T04:25:37.408Z,23.19
2022-08-27T04:28:07.394Z,23.34
2022-08-27T04:30:36.859Z,23.36
2022-08-27T04:33:06.316Z,23.30
2022-08-27T04:35:35.777Z,23.34
2022-08-27T04:38:05.664Z,23.14
2022-08-27T04:40:51.376Z,23.28
2022-08-27T04:43:22.747Z,23.19
2022-08-27T04:45:52.417Z,23.27
2022-08-27T04:48:22.097Z,23.28
2022-08-27T04:50:51.540Z,23.14
2022-08-27T04:53:21.374Z,23.10
2022-08-27T04:55:55.217Z,23.21
2022-08-27T04:58:25.079Z,23.34
2022-08-27T05:00:55.399Z,23.22
2022-08-27T05:03:26.261Z,23.15
2022-08-27T05:05:56.617Z,23.23
2022-08-27T05:08:26.093Z,23.21
2022-08-27T05:11:00.497Z,23.30
2022-08-27T05:13:30.355Z,23.17
2022-08-27T05:16:03.717Z,23.26
2022-08-27T05:18:37.978Z,23.27
2022-08-27T05:21:19.241Z,23.26
2022-08-27T05:23:48.891Z,23.30
2022-08-27T05:26:21.157Z,23.33
2022-08-27T05:28:50.905Z,23.18
2022-08-27T05:31:20.879Z,23.22
2022-08-27T05:33:50.419Z,23.29
2022-08-27T05:36:21.164Z,23.34
2022-08-27T05:38:51.769Z,23.29
2022-08-27T05:41:25.551Z,23.33
2022-08-27T05:44:10.557Z,23.31
2022-08-27T05:46:48.305Z,23.29
2022-08-27T05:49:18.497Z,23.30
2022-08-27T05:51:48.876Z,23.14
2022-08-27T05:54:19.743Z,23.27
2022-08-27T05:56:52.184Z,23.29
2022-08-27T05:59:34.749Z,23.30
2022-08-27T06:02:05.960Z,23.33
2022-08-27T06:04:35.202Z,23.50
2022-08-27T06:07:04.742Z,23.67
2022-08-27T06:09:34.193Z,23.89
2022-08-27T06:12:06.528Z,24.09
2022-08-27T06:14:36.100Z,24.29
2022-08-27T06:17:06.367Z,24.50
2022-08-27T06:19:36.713Z,24.67
2022-08-27T06:22:09.806Z,24.67
2022-08-27T06:24:41.188Z,24.72
2022-08-27T06:27:16.176Z,24.74
2022-08-27T06:29:46.127Z,24.69
2022-08-27T06:32:15.825Z,24.88
2022-08-27T06:34:45.262Z,24.88
2022-08-27T06:37:14.696Z,24.87
2022-08-27T06:39:44.228Z,25.05
2022-08-27T06:42:16.266Z,25.01
2022-08-27T06:44:45.912Z,25.12
2022-08-27T06:47:15.361Z,25.19
2022-08-27T06:49:46.368Z,25.29
2022-08-27T06:52:16.197Z,25.09
2022-08-27T06:54:45.871Z,24.99
2022-08-27T06:57:17.901Z,24.86
2022-08-27T06:59:47.848Z,24.83
2022-08-27T07:02:17.492Z,24.92
2022-08-27T07:04:47.492Z,24.94
2022-08-27T07:07:36.471Z,24.77
2022-08-27T07:10:07.597Z,24.69
2022-08-27T07:12:39.626Z,24.58
2022-08-27T07:15:10.185Z,24.65
2022-08-27T07:17:41.112Z,24.54
2022-08-27T07:20:11.526Z,24.62
2022-08-27T07:22:41.930Z,24.66
2022-08-27T07:25:13.037Z,24.83
2022-08-27T07:27:45.052Z,24.87
2022-08-27T07:30:15.833Z,24.85
2022-08-27T07:32:45.349Z,24.74
2022-08-27T07:35:15.004Z,24.96
2022-08-27T07:37:44.673Z,24.89
2022-08-27T07:40:15.823Z,24.96
2022-08-27T07:43:00.381Z,25.00
2022-08-27T07:45:30.201Z,24.90
2022-08-27T07:47:59.845Z,24.87
2022-08-27T07:50:29.523Z,24.92
2022-08-27T07:52:59.177Z,25.04
2022-08-27T07:55:28.971Z,24.94
2022-08-27T07:58:00.984Z,24.97
2022-08-27T08:00:30.706Z,24.98
2022-08-27T08:03:00.207Z,24.91
2022-08-27T08:05:29.932Z,24.97
2022-08-27T08:07:59.371Z,25.07
2022-08-27T08:10:32.353Z,25.11
2022-08-27T08:13:07.086Z,25.10
2022-08-27T08:15:37.854Z,25.21
2022-08-27T08:18:07.480Z,25.20
2022-08-27T08:20:57.105Z,25.16
2022-08-27T08:23:26.453Z,25.11
2022-08-27T08:25:55.918Z,25.13
2022-08-27T08:28:29.147Z,25.02
2022-08-27T08:30:58.878Z,25.02
2022-08-27T08:33:28.618Z,25.02
2022-08-27T08:35:58.332Z,25.05
2022-08-27T08:38:28.285Z,24.87
2022-08-27T08:40:57.757Z,24.83
2022-08-27T08:43:33.326Z,24.97
2022-08-27T08:46:07.943Z,25.09
2022-08-27T08:48:37.486Z,25.05
2022-08-27T08:51:10.080Z,25.10
2022-08-27T08:53:43.490Z,25.01
2022-08-27T08:56:14.834Z,25.13
2022-08-27T08:58:48.670Z,25.52
2022-08-27T09:01:20.641Z,25.87
2022-08-27T09:03:54.672Z,26.05
2022-08-27T09:06:31.950Z,26.10
2022-08-27T09:09:04.125Z,26.16
2022-08-27T09:11:38.012Z,26.28
2022-08-27T09:14:13.438Z,26.18
2022-08-27T09:16:43.306Z,26.09
2022-08-27T09:19:13.732Z,25.93
2022-08-27T09:21:51.350Z,25.83
2022-08-27T09:24:23.453Z,25.62
2022-08-27T09:26:53.034Z,25.73
2022-08-27T09:29:28.702Z,25.91
2022-08-27T09:32:00.006Z,26.04
2022-08-27T09:34:30.699Z,26.12
2022-08-27T09:37:04.884Z,26.31
2022-08-27T09:39:39.014Z,26.29
2022-08-27T09:42:09.401Z,26.29
2022-08-27T09:44:53.533Z,26.44
2022-08-27T09:47:23.196Z,26.52
2022-08-27T09:50:07.023Z,26.59
2022-08-27T09:52:38.148Z,26.40
2022-08-27T09:55:07.620Z,25.78
2022-08-27T09:57:38.663Z,25.56
2022-08-27T10:00:16.756Z,25.77
2022-08-27T10:02:52.999Z,25.82
2022-08-27T10:05:27.940Z,25.89
2022-08-27T10:07:59.890Z,25.70
2022-08-27T10:10:40.814Z,25.65
2022-08-27T10:13:12.618Z,25.57
2022-08-27T10:15:49.652Z,25.74
2022-08-27T10:18:22.757Z,25.66
2022-08-27T10:21:07.958Z,25.57
2022-08-27T10:23:40.456Z,25.40
2022-08-27T10:26:12.803Z,25.14
2022-08-27T10:28:47.284Z,25.17
2022-08-27T10:31:24.941Z,25.26
2022-08-27T10:34:12.360Z,25.29
2022-08-27T10:36:45.983Z,25.58
2022-08-27T10:39:21.084Z,25.83
2022-08-27T10:41:54.345Z,26.81
2022-08-27T10:44:40.629Z,27.32
2022-08-27T10:47:19.429Z,27.86
2022-08-27T10:49:51.856Z,27.76
2022-08-27T10:52:23.867Z,27.70
2022-08-27T10:54:56.101Z,27.42
2022-08-27T10:57:57.787Z,27.11
2022-08-27T11:00:33.535Z,26.55
2022-08-27T11:03:09.724Z,26.43
2022-08-27T11:05:45.255Z,26.53
2022-08-27T11:08:17.322Z,27.01
2022-08-27T11:10:48.962Z,27.60
2022-08-27T11:13:20.685Z,27.87
2022-08-27T11:15:52.170Z,27.82
2022-08-27T11:18:27.449Z,27.64
2022-08-27T11:20:59.868Z,27.39
2022-08-27T11:23:31.206Z,27.11
2022-08-27T11:26:02.204Z,27.27
2022-08-27T11:28:37.558Z,27.21
2022-08-27T11:31:10.520Z,27.15
2022-08-27T11:33:46.486Z,27.19
2022-08-27T11:36:35.086Z,27.29
2022-08-27T11:39:06.020Z,27.50
2022-08-27T11:41:51.658Z,27.31
2022-08-27T11:44:22.046Z,27.39
2022-08-27T11:46:52.800Z,27.44
2022-08-27T11:49:29.747Z,27.66
2022-08-27T11:52:01.302Z,27.60
2022-08-27T11:54:32.277Z,27.75
2022-08-27T11:57:01.828Z,27.91
2022-08-27T11:59:35.295Z,28.06
2022-08-27T12:02:23.632Z,28.07
2022-08-27T12:04:57.750Z,28.59
2022-08-27T12:07:31.810Z,28.85
2022-08-27T12:10:10.111Z,29.29
2022-08-27T12:12:45.210Z,29.58
2022-08-27T12:15:18.292Z,29.88
2022-08-27T12:17:52.113Z,29.79
2022-08-27T12:20:26.461Z,29.90
2022-08-27T12:23:16.065Z,29.84
2022-08-27T12:25:45.718Z,29.75
2022-08-27T12:28:15.398Z,29.55
2022-08-27T12:30:52.057Z,29.39
2022-08-27T12:33:24.891Z,29.59
2022-08-27T12:35:57.371Z,29.67
2022-08-27T12:38:39.587Z,29.60
2022-08-27T12:41:11.740Z,29.40
2022-08-27T12:43:43.972Z,29.48
2022-08-27T12:46:16.267Z,29.57
2022-08-27T12:48:46.926Z,29.52
2022-08-27T12:51:25.948Z,29.10
2022-08-27T12:53:56.585Z,28.90
2022-08-27T12:56:35.294Z,28.74
2022-08-27T12:59:10.969Z,28.55
2022-08-27T13:01:51.721Z,28.51
2022-08-27T13:04:24.115Z,28.48
2022-08-27T13:06:56.145Z,28.61
2022-08-27T13:09:29.895Z,28.92
2022-08-27T13:11:59.666Z,28.66
2022-08-27T13:14:29.725Z,28.49
2022-08-27T13:17:00.596Z,28.35
2022-08-27T13:19:31.403Z,28.18
2022-08-27T13:22:05.235Z,28.21
2022-08-27T13:24:35.521Z,27.97
2022-08-27T13:27:05.596Z,28.02
2022-08-27T13:29:35.074Z,27.98
2022-08-27T13:32:04.868Z,28.00
2022-08-27T13:34:36.600Z,28.02
2022-08-27T13:37:09.615Z,28.16
2022-08-27T13:39:40.017Z,28.08
2022-08-27T13:42:10.341Z,28.11
2022-08-27T13:44:41.305Z,28.18
2022-08-27T13:47:17.740Z,27.75
2022-08-27T13:49:47.205Z,27.53
2022-08-27T13:52:26.459Z,27.47
2022-08-27T13:54:58.200Z,27.60
2022-08-27T13:57:33.851Z,27.67
2022-08-27T14:00:11.856Z,27.30
2022-08-27T14:02:42.427Z,27.22
2022-08-27T14:05:31.160Z,27.51
2022-08-27T14:08:04.446Z,27.70
2022-08-27T14:10:36.148Z,27.74
2022-08-27T14:13:08.443Z,27.97
2022-08-27T14:15:39.107Z,28.18
2022-08-27T14:18:09.067Z,28.27
2022-08-27T14:20:38.540Z,28.27
2022-08-27T14:23:10.567Z,28.39
2022-08-27T14:25:40.004Z,28.47
2022-08-27T14:28:09.804Z,28.76
2022-08-27T14:30:39.747Z,28.79
2022-08-27T14:33:09.196Z,28.75
2022-08-27T14:35:38.763Z,28.67
2022-08-27T14:38:14.657Z,28.65
2022-08-27T14:40:44.604Z,28.49
2022-08-27T14:43:16.132Z,28.37
2022-08-27T14:45:45.980Z,28.56
2022-08-27T14:48:18.591Z,28.69
2022-08-27T14:50:48.758Z,28.81
2022-08-27T14:53:20.916Z,28.88
2022-08-27T14:55:52.008Z,29.06
2022-08-27T14:58:22.417Z,29.15
2022-08-27T15:00:52.158Z,28.93
2022-08-27T15:03:25.401Z,28.78
2022-08-27T15:05:56.056Z,28.88
2022-08-27T15:08:29.479Z,28.69
2022-08-27T15:11:01.781Z,28.17
2022-08-27T15:13:31.252Z,28.13
2022-08-27T15:16:00.836Z,27.96
2022-08-27T15:18:30.330Z,28.01
2022-08-27T15:20:59.790Z,28.03
2022-08-27T15:23:31.818Z,27.97
2022-08-27T15:26:01.278Z,27.95
2022-08-27T15:28:30.737Z,27.73
2022-08-27T15:31:00.209Z,27.83
2022-08-27T15:33:29.667Z,27.76
2022-08-27T15:36:03.851Z,27.84
2022-08-27T15:38:36.303Z,27.78
2022-08-27T15:41:05.779Z,27.95
2022-08-27T15:43:35.244Z,27.89
2022-08-27T15:46:05.562Z,27.83
2022-08-27T15:48:35.141Z,27.60
2022-08-27T15:51:07.006Z,27.74
2022-08-27T15:53:39.153Z,27.55
2022-08-27T15:56:09.498Z,27.79
2022-08-27T15:58:39.485Z,27.62
2022-08-27T16:01:11.205Z,27.59
2022-08-27T16:03:40.794Z,27.53
2022-08-27T16:06:10.284Z,27.55
2022-08-27T16:08:42.357Z,27.56
2022-08-27T16:11:12.019Z,27.45
2022-08-27T16:13:41.679Z,27.22
2022-08-27T16:16:11.161Z,27.15
2022-08-27T16:18:40.780Z,27.25
2022-08-27T16:21:10.244Z,27.18
2022-08-27T16:23:42.314Z,27.28
2022-08-27T16:26:11.764Z,27.32
2022-08-27T16:28:41.196Z,27.40
2022-08-27T16:31:13.132Z,27.35
2022-08-27T16:33:43.257Z,27.28
2022-08-27T16:36:13.006Z,27.21
2022-08-27T16:38:45.060Z,27.12
2022-08-27T16:41:14.577Z,27.08
2022-08-27T16:43:44.027Z,27.12
2022-08-27T16:46:13.534Z,27.08
2022-08-27T16:49:01.256Z,26.99
2022-08-27T16:51:34.663Z,26.93
2022-08-27T16:54:08.240Z,26.84
2022-08-27T16:56:38.070Z,26.81
2022-08-27T16:59:07.889Z,26.67
2022-08-27T17:01:37.733Z,26.74
2022-08-27T17:04:11.263Z,26.69
2022-08-27T17:06:44.799Z,26.68
2022-08-27T17:09:17.349Z,26.65
2022-08-27T17:11:47.737Z,26.61
2022-08-27T17:14:17.189Z,26.52
2022-08-27T17:16:46.654Z,26.59
2022-08-27T17:19:17.889Z,26.42
2022-08-27T17:21:47.380Z,26.41
2022-08-27T17:24:19.407Z,26.58
2022-08-27T17:26:48.852Z,26.50
2022-08-27T17:29:19.818Z,26.43
2022-08-27T17:31:49.299Z,26.18
2022-08-27T17:34:19.985Z,26.13
2022-08-27T17:36:49.581Z,26.04
2022-08-27T17:39:21.724Z,25.99
2022-08-27T17:41:52.390Z,25.83
2022-08-27T17:44:27.837Z,25.74
2022-08-27T17:46:59.305Z,25.62
2022-08-27T17:49:31.079Z,25.58
2022-08-27T17:52:02.299Z,25.57
2022-08-27T17:54:36.893Z,25.36
2022-08-27T17:57:07.867Z,25.38
2022-08-27T17:59:37.386Z,25.33
2022-08-27T18:02:06.901Z,25.26
2022-08-27T18:04:36.397Z,25.23
2022-08-27T18:07:06.027Z,25.18
2022-08-27T18:09:38.057Z,25.21
2022-08-27T18:12:07.872Z,25.10
2022-08-27T18:14:37.680Z,24.97
2022-08-27T18:17:07.237Z,24.65
2022-08-27T18:19:37.506Z,24.51
2022-08-27T18:22:07.361Z,24.58
2022-08-27T18:24:39.424Z,24.72
2022-08-27T18:27:08.888Z,24.66
2022-08-27T18:29:38.321Z,24.60
2022-08-27T18:32:07.918Z,24.31
2022-08-27T18:34:37.523Z,24.41
2022-08-27T18:37:10.333Z,24.28
2022-08-27T18:39:42.360Z,24.27
2022-08-27T18:42:11.970Z,24.18
2022-08-27T18:44:42.540Z,24.27
2022-08-27T18:47:11.998Z,24.02
2022-08-27T18:49:41.480Z,24.18
2022-08-27T18:52:13.523Z,24.13
2022-08-27T18:54:45.604Z,24.04
2022-08-27T18:57:15.084Z,23.88
2022-08-27T18:59:45.731Z,23.80
2022-08-27T19:02:19.026Z,23.73
2022-08-27T19:04:48.575Z,23.66
2022-08-27T19:07:18.037Z,23.73
2022-08-27T19:09:50.055Z,23.73
2022-08-27T19:12:19.508Z,23.65
2022-08-27T19:14:48.957Z,23.95
2022-08-27T19:17:27.536Z,23.81
2022-08-27T19:19:56.982Z,23.80
2022-08-27T19:22:26.437Z,23.67
2022-08-27T19:24:58.461Z,23.68
2022-08-27T19:27:28.629Z,23.52
2022-08-27T19:29:58.828Z,23.59
2022-08-27T19:32:28.341Z,23.57
2022-08-27T19:34:57.777Z,23.47
2022-08-27T19:37:29.391Z,23.43
2022-08-27T19:40:01.575Z,23.35
2022-08-27T19:42:31.583Z,23.41
2022-08-27T19:45:01.029Z,23.44
2022-08-27T19:47:30.526Z,23.43
2022-08-27T19:50:00.051Z,23.55
2022-08-27T19:52:29.523Z,23.47
2022-08-27T19:55:13.480Z,23.31
2022-08-27T19:57:43.689Z,23.23
2022-08-27T20:00:14.637Z,23.16
2022-08-27T20:02:43.877Z,22.93
2022-08-27T20:05:18.653Z,23.01
2022-08-27T20:07:48.861Z,23.27
2022-08-27T20:10:21.649Z,23.36
2022-08-27T20:12:51.307Z,23.21
2022-08-27T20:15:21.447Z,23.07
2022-08-27T20:17:53.526Z,22.97
2022-08-27T20:20:24.463Z,23.29
2022-08-27T20:22:55.173Z,22.61
2022-08-27T20:25:27.378Z,22.91
2022-08-27T20:27:56.855Z,22.85
2022-08-27T20:30:27.488Z,22.08
2022-08-27T20:32:57.258Z,21.98
2022-08-27T20:35:27.032Z,22.37
2022-08-27T20:37:57.231Z,21.73
2022-08-27T20:40:31.481Z,22.05
2022-08-27T20:43:01.191Z,22.39
2022-08-27T20:45:30.946Z,22.69
2022-08-27T20:48:04.175Z,22.79
2022-08-27T20:50:33.840Z,22.70
2022-08-27T20:53:03.309Z,22.90
2022-08-27T20:55:35.332Z,23.15
2022-08-27T20:58:22.818Z,23.30
2022-08-27T21:00:54.615Z,23.47
2022-08-27T21:03:24.310Z,23.65
2022-08-27T21:05:53.865Z,23.67
2022-08-27T21:08:23.411Z,23.70
2022-08-27T21:10:56.835Z,23.70
2022-08-27T21:13:26.444Z,23.77
2022-08-27T21:15:56.586Z,23.77
2022-08-27T21:18:29.353Z,23.68
2022-08-27T21:20:59.740Z,23.74
2022-08-27T21:23:29.549Z,23.77
2022-08-27T21:26:02.488Z,23.77
2022-08-27T21:28:32.103Z,23.70
2022-08-27T21:31:01.591Z,23.68
2022-08-27T21:33:31.060Z,23.68
2022-08-27T21:36:00.507Z,23.68
2022-08-27T21:38:29.950Z,23.68
2022-08-27T21:41:02.392Z,23.63
2022-08-27T21:43:31.834Z,23.43
2022-08-27T21:46:01.364Z,23.36
2022-08-27T21:48:30.849Z,23.34
2022-08-27T21:51:00.321Z,23.28
2022-08-27T21:53:30.198Z,23.22
2022-08-27T21:56:02.236Z,23.24
2022-08-27T21:58:31.756Z,23.27
2022-08-27T22:01:02.773Z,23.30
2022-08-27T22:03:32.586Z,23.24
2022-08-27T22:06:02.078Z,23.19
2022-08-27T22:08:31.766Z,23.14
2022-08-27T22:11:04.125Z,23.14
2022-08-27T22:13:33.809Z,23.08
2022-08-27T22:16:03.395Z,23.04
2022-08-27T22:18:33.060Z,22.98
2022-08-27T22:21:02.606Z,22.99
2022-08-27T22:23:32.097Z,23.01
2022-08-27T22:26:04.399Z,22.95
2022-08-27T22:28:33.883Z,22.97
2022-08-27T22:31:03.377Z,23.02
2022-08-27T22:33:33.110Z,22.99
2022-08-27T22:36:02.602Z,22.94
2022-08-27T22:38:32.175Z,22.98
2022-08-27T22:41:04.628Z,23.03
2022-08-27T22:43:34.067Z,23.03
2022-08-27T22:46:03.506Z,23.17
2022-08-27T22:48:32.956Z,23.32
2022-08-27T22:51:02.420Z,23.27
2022-08-27T22:53:39.342Z,23.22
2022-08-27T22:56:11.872Z,23.32
2022-08-27T22:58:46.160Z,23.25
2022-08-27T23:01:15.933Z,23.25
2022-08-27T23:03:45.468Z,23.22
2022-08-27T23:06:14.989Z,23.23
2022-08-27T23:08:44.462Z,23.06
2022-08-27T23:11:16.696Z,23.08
2022-08-27T23:13:46.175Z,23.20
2022-08-27T23:16:16.869Z,23.21
2022-08-27T23:18:46.496Z,23.17
2022-08-27T23:21:16.006Z,23.20
2022-08-27T23:23:45.483Z,23.24
2022-08-27T23:26:31.178Z,23.29
2022-08-27T23:29:00.622Z,23.30
2022-08-27T23:31:30.152Z,23.25
2022-08-27T23:33:59.899Z,23.08
2022-08-27T23:36:29.363Z,23.06
2022-08-27T23:38:58.835Z,23.17
2022-08-27T23:41:30.880Z,23.19
2022-08-27T23:44:00.345Z,23.16
2022-08-27T23:46:30.622Z,23.19
2022-08-27T23:49:00.147Z,23.15
2022-08-27T23:51:29.613Z,23.06
2022-08-27T23:53:59.044Z,23.20
2022-08-27T23:56:31.420Z,23.08
2022-08-27T23:59:00.853Z,22.98
